ADDS TAF Board (Experimental) INFO Settings
IDs: Format: Expanded Condensed

KMDW - Chicago/Midway Intl, IL, US

Issued at 1500 UTC 30 May 2016
Updated at: 1622 UTC 30 May 2016
Time1553Z 30/17Z 30/18Z 30/19Z 30/20Z 30/21Z 30/22Z 30/23Z 31/00Z 31/01Z 31/02Z 31/03Z 31/04Z 31/05Z
Type OBS PRVL PRVL PRVL PRVL PRVL PRVL PRVL PRVL PRVL PRVL PRVL PRVL PRVL
VIS 10 >6 >6 >6 >6 >6 >6 >6 >6 >6 >6 >6 >6 >6
CIG -- -- -- -- -- -- -- -- -- -- -- -- -- --
Cover SCT SCT SCT SCT SKC SKC SKC SKC SKC SKC SKC SKC SKC SCT
FltCat VFR VFR VFR VFR VFR VFR VFR VFR VFR VFR VFR VFR VFR VFR
WX -- -- -- -- -- -- -- -- -- -- -- -- -- --
WDir 240 280 280 280 60 60 60 60 60 60 60 60 60 120
WSpd 9 7 7 7 10 10 10 10 10 10 10 10 10 5
WGst 19 -- -- -- -- -- -- -- -- -- -- -- -- --
R04/22
XWnd 3 6 6 6 -3 -3 -3 -3 -3 -3 -3 -3 -3 -5
XGst 6 -- -- -- -- -- -- -- -- -- -- -- -- --
HWnd -9 -4 -4 -4 10 10 10 10 10 10 10 10 10 1
HGst -18 -- -- -- -- -- -- -- -- -- -- -- -- --
R13/31
XWnd -9 -4 -4 -4 10 10 10 10 10 10 10 10 10 1
XGst -18 -- -- -- -- -- -- -- -- -- -- -- -- --
HWnd -2 -6 -6 -6 3 3 3 3 3 3 3 3 3 5
HGst -5 -- -- -- -- -- -- -- -- -- -- -- -- --

NOTE: TEMPO conditions in [brackets]. Keep in mind TEMPO conditions might be better (lower impact) than prevailing conditions.

Raw TAF
KMDW 301500Z 3015/3112 28007KT P6SM SCT060
  FM302000 06010KT P6SM SKC
  FM310500 12005KT P6SM SCT120


Raw METAR
KMDW 301553Z 24009G19KT 10SM FEW050 SCT250 27/15 A3003 RMK AO2 SLP160 T02720150 $
KMDW 301453Z VRB04KT 10SM SCT250 26/15 A3003 RMK AO2 SLP159 T02610150 52002 $
KMDW 301353Z 24003KT 10SM SCT250 25/15 A3003 RMK AO2 SLP158 T02500150 $

METAR Board
Radar Display
Forecast Discussion

TAF Board Legend

Potential Impact
Threat None Slight Moderate High
Visibility (sm) ≥5.1 5.1>X≥3 3>X≥1 <1
Ceiling (100 ft) ≥30.1 30.1>X≥10 10>X≥5 <5
Wind Speed (kt) <10 10≤X<20 20≤X<30 ≥30
Wind Gust (kt) <15 15≤X<25 25≤X<35 ≥35
Weather No Wx Reported VCTS,-TS,-FZRA,SN TS,FZRA +TS,+FZRA,+SN